createdAt,value
2017-08-26T00:01:58.882Z,100858
2017-08-26T00:04:26.966Z,100865
2017-08-26T00:06:55.046Z,100862
2017-08-26T00:09:23.148Z,100870
2017-08-26T00:11:51.216Z,100856
2017-08-26T00:14:19.310Z,100857
2017-08-26T00:16:47.476Z,100850
2017-08-26T00:19:15.607Z,100859
2017-08-26T00:21:43.679Z,100850
2017-08-26T00:24:11.793Z,100853
2017-08-26T00:26:39.902Z,100853
2017-08-26T00:29:07.995Z,100853
2017-08-26T00:31:36.079Z,100857
2017-08-26T00:34:04.181Z,100852
2017-08-26T00:36:32.284Z,100854
2017-08-26T00:39:00.375Z,100860
2017-08-26T00:41:28.494Z,100838
2017-08-26T00:43:56.597Z,100836
2017-08-26T00:46:24.709Z,100839
2017-08-26T00:48:52.787Z,100837
2017-08-26T00:51:20.869Z,100844
2017-08-26T00:53:48.972Z,100829
2017-08-26T00:56:17.068Z,100838
2017-08-26T00:58:46.114Z,100824
2017-08-26T01:01:14.188Z,100833
2017-08-26T01:03:42.292Z,100826
2017-08-26T01:06:11.292Z,100831
2017-08-26T01:08:40.291Z,100835
2017-08-26T01:11:08.398Z,100831
2017-08-26T01:13:36.486Z,100826
2017-08-26T01:16:04.617Z,100821
2017-08-26T01:18:32.701Z,100817
2017-08-26T01:21:00.801Z,100820
2017-08-26T01:23:28.907Z,100824
2017-08-26T01:25:58.567Z,100832
2017-08-26T01:28:26.700Z,100832
2017-08-26T01:30:54.808Z,100836
2017-08-26T01:33:22.883Z,100823
2017-08-26T01:35:51.031Z,100821
2017-08-26T01:38:19.115Z,100820
2017-08-26T01:40:49.103Z,100812
2017-08-26T01:43:17.223Z,100827
2017-08-26T01:45:45.323Z,100824
2017-08-26T01:48:13.427Z,100819
2017-08-26T01:50:41.521Z,100824
2017-08-26T01:53:09.610Z,100826
2017-08-26T01:55:37.704Z,100832
2017-08-26T01:58:05.806Z,100836
2017-08-26T02:00:33.921Z,100830
2017-08-26T02:03:02.036Z,100830
2017-08-26T02:05:30.132Z,100831
2017-08-26T02:07:58.214Z,100835
2017-08-26T02:10:27.237Z,100832
2017-08-26T02:12:55.314Z,100832
2017-08-26T02:15:23.432Z,100830
2017-08-26T02:17:51.529Z,100829
2017-08-26T02:20:19.619Z,100811
2017-08-26T02:22:47.695Z,100835
2017-08-26T02:25:15.802Z,100830
2017-08-26T02:27:44.815Z,100831
2017-08-26T02:30:12.894Z,100839
2017-08-26T02:32:41.003Z,100839
2017-08-26T02:35:09.121Z,100839
2017-08-26T02:37:37.199Z,100835
2017-08-26T02:40:05.307Z,100827
2017-08-26T02:42:33.404Z,100822
2017-08-26T02:45:01.474Z,100816
2017-08-26T02:47:29.606Z,100816
2017-08-26T02:49:57.679Z,100824
2017-08-26T02:52:25.784Z,100821
2017-08-26T02:54:53.888Z,100816
2017-08-26T02:57:21.990Z,100817
2017-08-26T02:59:50.991Z,100823
2017-08-26T03:02:19.082Z,100815
2017-08-26T03:04:48.104Z,100810
2017-08-26T03:07:17.122Z,100804
2017-08-26T03:09:45.226Z,100807
2017-08-26T03:12:14.215Z,100807
2017-08-26T03:14:42.323Z,100808
2017-08-26T03:17:10.405Z,100798
2017-08-26T03:19:38.507Z,100796
2017-08-26T03:22:06.631Z,100792
2017-08-26T03:24:34.743Z,100788
2017-08-26T03:27:02.851Z,100777
2017-08-26T03:29:30.964Z,100777
2017-08-26T03:31:59.088Z,100782
2017-08-26T03:34:27.195Z,100784
2017-08-26T03:36:55.303Z,100783
2017-08-26T03:39:23.379Z,100767
2017-08-26T03:41:51.464Z,100770
2017-08-26T03:44:19.580Z,100766
2017-08-26T03:46:47.662Z,100769
2017-08-26T03:49:15.747Z,100772
2017-08-26T03:51:43.858Z,100776
2017-08-26T03:54:11.963Z,100771
2017-08-26T03:56:40.080Z,100774
2017-08-26T03:59:08.187Z,100781
2017-08-26T04:01:36.271Z,100776
2017-08-26T04:04:04.395Z,100782
2017-08-26T04:06:34.143Z,100770
2017-08-26T04:09:02.223Z,100788
2017-08-26T04:11:32.227Z,100786
2017-08-26T04:14:00.395Z,100783
2017-08-26T04:16:28.507Z,100783
2017-08-26T04:18:56.597Z,100783
2017-08-26T04:21:24.748Z,100786
2017-08-26T04:23:52.825Z,100784
2017-08-26T04:26:22.843Z,100783
2017-08-26T04:28:50.987Z,100787
2017-08-26T04:31:19.065Z,100784
2017-08-26T04:33:47.143Z,100793
2017-08-26T04:36:15.254Z,100789
2017-08-26T04:38:43.382Z,100787
2017-08-26T04:41:11.499Z,100777
2017-08-26T04:43:39.605Z,100784
2017-08-26T04:46:07.690Z,100782
2017-08-26T04:48:35.804Z,100781
2017-08-26T04:51:03.896Z,100790
2017-08-26T04:53:32.010Z,100781
2017-08-26T04:56:00.176Z,100790
2017-08-26T04:58:28.266Z,100791
2017-08-26T05:00:56.390Z,100785
2017-08-26T05:03:28.187Z,100799
2017-08-26T05:05:56.294Z,100789
2017-08-26T05:08:25.168Z,100793
2017-08-26T05:10:53.266Z,100791
2017-08-26T05:13:21.366Z,100794
2017-08-26T05:15:49.430Z,100797
2017-08-26T05:18:17.540Z,100799
2017-08-26T05:20:45.635Z,100797
2017-08-26T05:23:13.760Z,100797
2017-08-26T05:25:41.883Z,100797
2017-08-26T05:28:09.990Z,100798
2017-08-26T05:30:38.162Z,100785
2017-08-26T05:33:06.292Z,100802
2017-08-26T05:35:34.459Z,100801
2017-08-26T05:38:02.563Z,100793
2017-08-26T05:40:30.667Z,100794
2017-08-26T05:42:58.770Z,100796
2017-08-26T05:45:26.879Z,100801
2017-08-26T05:47:54.976Z,100793
2017-08-26T05:50:23.118Z,100789
2017-08-26T05:52:51.200Z,100791
2017-08-26T05:55:19.307Z,100793
2017-08-26T05:57:47.419Z,100782
2017-08-26T06:00:15.526Z,100795
2017-08-26T06:02:43.606Z,100791
2017-08-26T06:05:11.722Z,100800
2017-08-26T06:07:39.795Z,100796
2017-08-26T06:10:07.902Z,100800
2017-08-26T06:12:35.992Z,100797
2017-08-26T06:15:04.087Z,100795
2017-08-26T06:17:32.172Z,100768
2017-08-26T06:20:00.282Z,100790
2017-08-26T06:22:29.298Z,100789
2017-08-26T06:24:57.405Z,100793
2017-08-26T06:27:25.500Z,100798
2017-08-26T06:29:53.594Z,100790
2017-08-26T06:32:21.687Z,100795
2017-08-26T06:34:49.778Z,100791
2017-08-26T06:37:18.803Z,100799
2017-08-26T06:39:46.879Z,100790
2017-08-26T06:42:14.996Z,100781
2017-08-26T06:44:44.027Z,100788
2017-08-26T06:47:12.107Z,100784
2017-08-26T06:49:40.229Z,100783
2017-08-26T06:52:08.307Z,100795
2017-08-26T06:54:36.404Z,100786
2017-08-26T06:57:04.484Z,100787
2017-08-26T06:59:32.579Z,100789
2017-08-26T07:02:00.673Z,100783
2017-08-26T07:04:29.669Z,100789
2017-08-26T07:06:57.763Z,100775
2017-08-26T07:09:25.862Z,100777
2017-08-26T07:11:53.946Z,100770
2017-08-26T07:14:22.049Z,100782
2017-08-26T07:16:50.125Z,100781
2017-08-26T07:19:18.226Z,100775
2017-08-26T07:21:46.318Z,100763
2017-08-26T07:24:14.428Z,100787
2017-08-26T07:26:42.520Z,100775
2017-08-26T07:29:10.609Z,100787
2017-08-26T07:31:40.624Z,100789
2017-08-26T07:34:08.733Z,100787
2017-08-26T07:36:36.811Z,100791
2017-08-26T07:39:04.936Z,100790
2017-08-26T07:41:33.031Z,100781
2017-08-26T07:44:01.114Z,100785
2017-08-26T07:46:29.220Z,100788
2017-08-26T07:48:57.316Z,100786
2017-08-26T07:51:25.436Z,100795
2017-08-26T07:53:53.516Z,100792
2017-08-26T07:56:21.601Z,100792
2017-08-26T07:58:49.715Z,100800
2017-08-26T08:01:18.707Z,100797
2017-08-26T08:03:47.716Z,100806
2017-08-26T08:06:15.799Z,100804
2017-08-26T08:08:43.892Z,100806
2017-08-26T08:11:12.920Z,100808
2017-08-26T08:13:41.003Z,100818
2017-08-26T08:16:09.108Z,100827
2017-08-26T08:18:37.215Z,100817
2017-08-26T08:21:05.323Z,100819
2017-08-26T08:23:34.320Z,100819
2017-08-26T08:26:02.429Z,100819
2017-08-26T08:28:30.535Z,100828
2017-08-26T08:30:58.620Z,100819
2017-08-26T08:33:26.715Z,100817
2017-08-26T08:35:56.715Z,100813
2017-08-26T08:38:24.810Z,100814
2017-08-26T08:40:52.927Z,100809
2017-08-26T08:43:21.057Z,100810
2017-08-26T08:45:49.165Z,100801
2017-08-26T08:48:17.259Z,100810
2017-08-26T08:50:45.352Z,100804
2017-08-26T08:53:13.454Z,100818
2017-08-26T08:55:41.565Z,100818
2017-08-26T08:58:09.665Z,100812
2017-08-26T09:00:37.752Z,100822
2017-08-26T09:03:05.838Z,100820
2017-08-26T09:05:33.944Z,100818
2017-08-26T09:08:02.053Z,100822
2017-08-26T09:10:31.063Z,100825
2017-08-26T09:12:59.167Z,100826
2017-08-26T09:15:27.273Z,100823
2017-08-26T09:17:55.366Z,100826
2017-08-26T09:20:23.468Z,100806
2017-08-26T09:22:52.495Z,100814
2017-08-26T09:25:20.595Z,100822
2017-08-26T09:27:48.716Z,100831
2017-08-26T09:30:16.815Z,100825
2017-08-26T09:32:44.924Z,100822
2017-08-26T09:35:13.028Z,100825
2017-08-26T09:37:42.083Z,100838
2017-08-26T09:40:10.191Z,100838
2017-08-26T09:42:38.283Z,100838
2017-08-26T09:45:06.384Z,100836
2017-08-26T09:47:35.379Z,100832
2017-08-26T09:50:03.492Z,100829
2017-08-26T09:52:31.891Z,100834
2017-08-26T09:54:59.976Z,100836
2017-08-26T09:57:28.088Z,100832
2017-08-26T09:59:56.278Z,100830
2017-08-26T10:02:24.399Z,100832
2017-08-26T10:04:52.484Z,100834
2017-08-26T10:07:20.610Z,100824
2017-08-26T10:09:48.711Z,100830
2017-08-26T10:12:16.826Z,100821
2017-08-26T10:14:44.923Z,100824
2017-08-26T10:17:13.027Z,100817
2017-08-26T10:19:41.140Z,100820
2017-08-26T10:22:09.227Z,100819
2017-08-26T10:24:37.323Z,100828
2017-08-26T10:27:08.925Z,100821
2017-08-26T10:29:37.012Z,100819
2017-08-26T10:32:05.135Z,100819
2017-08-26T10:34:34.154Z,100820
2017-08-26T10:37:03.187Z,100810
2017-08-26T10:39:31.301Z,100820
2017-08-26T10:41:59.385Z,100811
2017-08-26T10:44:28.017Z,100813
2017-08-26T10:46:56.127Z,100817
2017-08-26T10:49:24.260Z,100820
2017-08-26T10:51:52.385Z,100818
2017-08-26T10:54:20.472Z,100811
2017-08-26T10:56:48.555Z,100818
2017-08-26T10:59:18.585Z,100816
2017-08-26T11:01:46.747Z,100824
2017-08-26T11:04:14.831Z,100822
2017-08-26T11:06:42.920Z,100820
2017-08-26T11:09:11.895Z,100823
2017-08-26T11:11:40.047Z,100825
2017-08-26T11:14:08.281Z,100816
2017-08-26T11:16:36.380Z,100818
2017-08-26T11:19:04.501Z,100819
2017-08-26T11:21:32.590Z,100817
2017-08-26T11:24:01.471Z,100817
2017-08-26T11:26:29.592Z,100811
2017-08-26T11:28:57.675Z,100815
2017-08-26T11:31:25.752Z,100805
2017-08-26T11:33:53.894Z,100800
2017-08-26T11:36:22.898Z,100797
2017-08-26T11:38:50.991Z,100798
2017-08-26T11:41:19.123Z,100794
2017-08-26T11:43:47.236Z,100794
2017-08-26T11:46:15.319Z,100797
2017-08-26T11:48:43.505Z,100807
2017-08-26T11:51:11.585Z,100803
2017-08-26T11:53:39.675Z,100811
2017-08-26T11:56:08.710Z,100808
2017-08-26T11:58:36.807Z,100814
2017-08-26T12:01:04.939Z,100810
2017-08-26T12:03:33.035Z,100816
2017-08-26T12:06:01.120Z,100798
2017-08-26T12:08:29.235Z,100796
2017-08-26T12:10:57.324Z,100797
2017-08-26T12:13:25.415Z,100806
2017-08-26T12:15:54.416Z,100802
2017-08-26T12:18:22.511Z,100802
2017-08-26T12:20:50.635Z,100803
2017-08-26T12:23:18.730Z,100804
2017-08-26T12:25:46.820Z,100816
2017-08-26T12:28:14.913Z,100816
2017-08-26T12:30:43.011Z,100818
2017-08-26T12:33:12.042Z,100815
2017-08-26T12:35:40.150Z,100814
2017-08-26T12:38:08.250Z,100815
2017-08-26T12:40:36.556Z,100817
2017-08-26T12:43:04.680Z,100818
2017-08-26T12:45:32.771Z,100814
2017-08-26T12:48:00.884Z,100814
2017-08-26T12:50:28.970Z,100821
2017-08-26T12:52:58.080Z,100822
2017-08-26T12:55:26.170Z,100821
2017-08-26T12:57:54.250Z,100821
2017-08-26T13:00:22.412Z,100816
2017-08-26T13:02:50.759Z,100804
2017-08-26T13:05:18.855Z,100809
2017-08-26T13:07:46.962Z,100812
2017-08-26T13:10:15.959Z,100817
2017-08-26T13:12:44.038Z,100808
2017-08-26T13:15:12.143Z,100821
2017-08-26T13:17:40.239Z,100825
2017-08-26T13:20:08.369Z,100821
2017-08-26T13:22:37.364Z,100814
2017-08-26T13:25:05.532Z,100812
2017-08-26T13:27:33.632Z,100814
2017-08-26T13:30:01.727Z,100803
2017-08-26T13:32:30.776Z,100795
2017-08-26T13:34:59.801Z,100798
2017-08-26T13:37:27.915Z,100797
2017-08-26T13:39:55.987Z,100799
2017-08-26T13:42:24.073Z,100796
2017-08-26T13:44:52.191Z,100792
2017-08-26T13:47:20.292Z,100806
2017-08-26T13:49:48.403Z,100801
2017-08-26T13:52:17.424Z,100804
2017-08-26T13:54:45.524Z,100801
2017-08-26T13:57:13.643Z,100815
2017-08-26T13:59:41.759Z,100814
2017-08-26T14:02:09.871Z,100805
2017-08-26T14:04:38.046Z,100804
2017-08-26T14:07:06.171Z,100802
2017-08-26T14:09:34.268Z,100797
2017-08-26T14:12:02.392Z,100807
2017-08-26T14:14:30.599Z,100807
2017-08-26T14:16:58.800Z,100804
2017-08-26T14:19:27.832Z,100811
2017-08-26T14:21:56.820Z,100810
2017-08-26T14:24:24.938Z,100817
2017-08-26T14:26:53.018Z,100809
2017-08-26T14:29:21.089Z,100819
2017-08-26T14:31:50.112Z,100815
2017-08-26T14:34:18.210Z,100821
2017-08-26T14:36:46.305Z,100819
2017-08-26T14:39:14.398Z,100807
2017-08-26T14:41:43.395Z,100811
2017-08-26T14:44:11.488Z,100820
2017-08-26T14:46:39.575Z,100814
2017-08-26T14:49:07.665Z,100809
2017-08-26T14:51:36.691Z,100810
2017-08-26T14:54:04.795Z,100811
2017-08-26T14:56:33.123Z,100802
2017-08-26T14:59:01.208Z,100809
2017-08-26T15:01:29.292Z,100799
2017-08-26T15:03:57.381Z,100800
2017-08-26T15:06:25.500Z,100799
2017-08-26T15:08:53.646Z,100806
2017-08-26T15:11:21.744Z,100802
2017-08-26T15:13:49.855Z,100799
2017-08-26T15:16:17.989Z,100803
2017-08-26T15:18:47.021Z,100800
2017-08-26T15:21:15.137Z,100805
2017-08-26T15:23:43.395Z,100812
2017-08-26T15:26:12.426Z,100808
2017-08-26T15:28:40.530Z,100807
2017-08-26T15:31:08.629Z,100809
2017-08-26T15:33:36.696Z,100821
2017-08-26T15:36:04.775Z,100812
2017-08-26T15:38:32.871Z,100806
2017-08-26T15:41:00.997Z,100802
2017-08-26T15:43:29.117Z,100800
2017-08-26T15:45:57.220Z,100811
2017-08-26T15:48:25.335Z,100806
2017-08-26T15:50:53.442Z,100806
2017-08-26T15:53:22.468Z,100803
2017-08-26T15:55:50.557Z,100796
2017-08-26T15:58:18.672Z,100797
2017-08-26T16:00:46.779Z,100803
2017-08-26T16:03:14.883Z,100799
2017-08-26T16:05:43.003Z,100800
2017-08-26T16:08:11.883Z,100802
2017-08-26T16:10:39.977Z,100797
2017-08-26T16:13:08.127Z,100793
2017-08-26T16:15:36.216Z,100797
2017-08-26T16:18:04.323Z,100801
2017-08-26T16:20:32.408Z,100810
2017-08-26T16:23:00.515Z,100803
2017-08-26T16:25:28.600Z,100808
2017-08-26T16:27:56.714Z,100808
2017-08-26T16:30:24.809Z,100798
2017-08-26T16:32:54.852Z,100804
2017-08-26T16:35:22.958Z,100815
2017-08-26T16:37:51.064Z,100808
2017-08-26T16:40:19.192Z,100811
2017-08-26T16:42:47.276Z,100820
2017-08-26T16:45:15.415Z,100829
2017-08-26T16:47:44.444Z,100821
2017-08-26T16:50:12.536Z,100819
2017-08-26T16:52:41.576Z,100818
2017-08-26T16:55:09.691Z,100824
2017-08-26T16:57:37.776Z,100830
2017-08-26T17:00:05.911Z,100825
2017-08-26T17:02:34.031Z,100823
2017-08-26T17:05:02.126Z,100821
2017-08-26T17:07:30.227Z,100825
2017-08-26T17:09:58.424Z,100825
2017-08-26T17:12:26.850Z,100823
2017-08-26T17:14:54.963Z,100819
2017-08-26T17:17:23.043Z,100825
2017-08-26T17:19:51.154Z,100821
2017-08-26T17:22:19.287Z,100828
2017-08-26T17:24:47.395Z,100832
2017-08-26T17:27:15.503Z,100830
2017-08-26T17:29:43.643Z,100823
2017-08-26T17:32:11.768Z,100823
2017-08-26T17:34:39.883Z,100809
2017-08-26T17:37:08.028Z,100821
2017-08-26T17:39:37.013Z,100826
2017-08-26T17:42:05.090Z,100829
2017-08-26T17:44:33.759Z,100826
2017-08-26T17:47:01.917Z,100820
2017-08-26T17:49:30.962Z,100824
2017-08-26T17:51:59.062Z,100829
2017-08-26T17:54:27.149Z,100844
2017-08-26T17:56:55.272Z,100835
2017-08-26T17:59:23.372Z,100838
2017-08-26T18:01:51.478Z,100852
2017-08-26T18:04:19.601Z,100847
2017-08-26T18:06:47.709Z,100834
2017-08-26T18:09:15.796Z,100853
2017-08-26T18:11:44.744Z,100813
2017-08-26T18:14:12.836Z,100836
2017-08-26T18:16:41.832Z,100847
2017-08-26T18:19:09.941Z,100848
2017-08-26T18:21:38.025Z,100851
2017-08-26T18:24:06.109Z,100851
2017-08-26T18:26:34.215Z,100859
2017-08-26T18:29:02.304Z,100852
2017-08-26T18:31:30.408Z,100862
2017-08-26T18:33:58.488Z,100861
2017-08-26T18:36:26.591Z,100855
2017-08-26T18:38:54.719Z,100860
2017-08-26T18:41:24.051Z,100868
2017-08-26T18:43:52.178Z,100862
2017-08-26T18:46:20.265Z,100874
2017-08-26T18:48:48.381Z,100869
2017-08-26T18:51:16.491Z,100874
2017-08-26T18:53:44.602Z,100884
2017-08-26T18:56:12.736Z,100885
2017-08-26T18:58:40.827Z,100881
2017-08-26T19:01:08.944Z,100884
2017-08-26T19:03:37.026Z,100885
2017-08-26T19:06:05.125Z,100884
2017-08-26T19:08:33.215Z,100884
2017-08-26T19:11:01.912Z,100889
2017-08-26T19:13:30.013Z,100891
2017-08-26T19:15:58.111Z,100892
2017-08-26T19:18:26.227Z,100893
2017-08-26T19:20:54.340Z,100894
2017-08-26T19:23:23.330Z,100896
2017-08-26T19:25:51.455Z,100898
2017-08-26T19:28:19.535Z,100901
2017-08-26T19:30:47.639Z,100896
2017-08-26T19:33:15.743Z,100883
2017-08-26T19:35:43.856Z,100899
2017-08-26T19:38:11.954Z,100903
2017-08-26T19:40:40.051Z,100904
2017-08-26T19:43:08.150Z,100904
2017-08-26T19:45:36.245Z,100910
2017-08-26T19:48:04.343Z,100904
2017-08-26T19:50:33.363Z,100911
2017-08-26T19:53:01.459Z,100906
2017-08-26T19:55:29.565Z,100909
2017-08-26T19:57:57.647Z,100900
2017-08-26T20:00:25.760Z,100903
2017-08-26T20:02:53.867Z,100908
2017-08-26T20:05:21.988Z,100908
2017-08-26T20:07:50.083Z,100898
2017-08-26T20:10:18.176Z,100913
2017-08-26T20:12:46.304Z,100918
2017-08-26T20:15:14.390Z,100911
2017-08-26T20:17:42.508Z,100918
2017-08-26T20:20:11.518Z,100919
2017-08-26T20:22:39.615Z,100913
2017-08-26T20:25:07.720Z,100923
2017-08-26T20:27:35.855Z,100913
2017-08-26T20:30:03.962Z,100912
2017-08-26T20:32:32.051Z,100919
2017-08-26T20:35:00.152Z,100916
2017-08-26T20:37:28.239Z,100913
2017-08-26T20:39:56.348Z,100916
2017-08-26T20:42:24.458Z,100918
2017-08-26T20:44:52.550Z,100921
2017-08-26T20:47:20.864Z,100921
2017-08-26T20:49:48.935Z,100915
2017-08-26T20:52:17.028Z,100916
2017-08-26T20:54:45.350Z,100917
2017-08-26T20:57:13.455Z,100928
2017-08-26T20:59:41.579Z,100923
2017-08-26T21:02:09.681Z,100913
2017-08-26T21:04:38.687Z,100917
2017-08-26T21:07:06.772Z,100914
2017-08-26T21:09:34.897Z,100919
2017-08-26T21:12:02.967Z,100922
2017-08-26T21:14:31.961Z,100924
2017-08-26T21:17:00.067Z,100929
2017-08-26T21:19:28.216Z,100910
2017-08-26T21:21:56.327Z,100932
2017-08-26T21:24:24.427Z,100932
2017-08-26T21:26:52.529Z,100941
2017-08-26T21:29:20.635Z,100939
2017-08-26T21:31:48.747Z,100930
2017-08-26T21:34:16.863Z,100930
2017-08-26T21:36:45.875Z,100925
2017-08-26T21:39:14.040Z,100928
2017-08-26T21:41:42.128Z,100928
2017-08-26T21:44:10.216Z,100932
2017-08-26T21:46:38.325Z,100929
2017-08-26T21:49:06.413Z,100936
2017-08-26T21:51:34.536Z,100935
2017-08-26T21:54:02.620Z,100936
2017-08-26T21:56:30.727Z,100957
2017-08-26T21:58:58.853Z,100945
2017-08-26T22:01:26.936Z,100946
2017-08-26T22:03:55.065Z,100945
2017-08-26T22:06:23.166Z,100945
2017-08-26T22:08:51.260Z,100945
2017-08-26T22:11:19.379Z,100937
2017-08-26T22:13:49.425Z,100945
2017-08-26T22:16:17.822Z,100949
2017-08-26T22:18:45.955Z,100945
2017-08-26T22:21:14.060Z,100938
2017-08-26T22:23:42.181Z,100942
2017-08-26T22:26:10.301Z,100942
2017-08-26T22:28:38.387Z,100940
2017-08-26T22:31:06.472Z,100942
2017-08-26T22:33:34.573Z,100936
2017-08-26T22:36:02.664Z,100941
2017-08-26T22:38:30.812Z,100939
2017-08-26T22:40:58.923Z,100941
2017-08-26T22:43:27.012Z,100937
2017-08-26T22:45:55.350Z,100936
2017-08-26T22:48:23.444Z,100933
2017-08-26T22:50:52.440Z,100935
2017-08-26T22:53:20.556Z,100936
2017-08-26T22:55:48.627Z,100936
2017-08-26T22:58:17.614Z,100935
2017-08-26T23:00:46.587Z,100943
2017-08-26T23:03:14.672Z,100948
2017-08-26T23:05:43.699Z,100942
2017-08-26T23:08:11.776Z,100946
2017-08-26T23:10:39.900Z,100945
2017-08-26T23:13:07.987Z,100952
2017-08-26T23:15:37.004Z,100953
2017-08-26T23:18:05.115Z,100954
2017-08-26T23:20:33.203Z,100947
2017-08-26T23:23:01.311Z,100953
2017-08-26T23:25:29.392Z,100952
2017-08-26T23:27:58.416Z,100945
2017-08-26T23:30:27.411Z,100954
2017-08-26T23:32:55.492Z,100950
2017-08-26T23:35:23.603Z,100952
2017-08-26T23:37:51.671Z,100960
2017-08-26T23:40:19.794Z,100956
2017-08-26T23:42:47.880Z,100957
2017-08-26T23:45:16.054Z,100954
2017-08-26T23:47:44.147Z,100955
2017-08-26T23:50:12.231Z,100960
2017-08-26T23:52:40.385Z,100952
2017-08-26T23:55:11.869Z,100957
2017-08-26T23:57:39.980Z,100968
